EFKI

Kajaani Airport

Kajaani, Finland
METAR EFKI 161750Z AUTO 27005KT 7000 -SN OVC015 M13/M15 Q0990
Observed Flight Rules
Jan-16 @ 17:50 UTC (36 minutes ago) Marginal Visual Flight Rules
Wind Visibility Clouds Conditions
270° at 5 knots 7,001 meters
  • Overcast at 1,500' AGL
  • Light Snow
Temperatures Readings
Current -13°C / 9°F
Dewpoint -15°C / 5°F
Humidity 85%
Altimeter 29.23" Hg
Pressure 989.92 hPa
Elevation 136
METAR EFKI 161750Z AUTO 27005KT 7000 -SN OVC015 M13/M15 Q0990
Observed Flight Rules
Jan-16 @ 17:50 UTC
(36 minutes ago)
MVFR
Wind Visibility
270° at 5 knots 7,001 meters
Clouds
  • Overcast at 1,500' AGL
Conditions
  • Light Snow
Temperature Dewpoint
-13°C / 9°F -15°C / 5°F
Humidity Altimeter Pressure
85% 29.23" Hg 989.92 hPa